Roma, Italia

09:00 AM CEST del 24 Ottobre 2014 (GMT +0200)
Ciampino | Change Station
CLOSE
Current Station
Stazione meteo personale
Location: Ciampino, LAZIO
Altitudine: 348 ft
Stazioni meteo nelle vicinanze
Avvisi attivi: Wind

Alt. 348 ft 41.81 °N, 12.60 °E | Updated 7 seconds ago

Scattered Clouds
Nubi sparse
56.5 °F
Sembra 56.5 °F
N
3.1
Vento Variabile Vento da NO
Gusts 4.5 mph

Oggi
Massima -- | Minima -- °F
--% Possibilità di precip.
Ieri
Massima -- | Minima -- °F
Precip. -- in
7:32 AM 6:15 PM
Luna nuova, 0% visible
Pressione 29.83 in
Visibilità 6.2 miglia
Nuvole Nubi sparse 8000 ft
Punto di rugiada 47 °F
Umidità 70%
Piovosità 0.00 in
Spessore del manto nevoso Non disponibile.
Raggi UV 0 fuori da 12
Polline Non disponibile.
Qualità dell'aria Non disponibile.
Flu Activity Non disponibile.
METAR LIRA 240645Z 01003KT 9999 SCT080 10/06 Q1010

More Conditions Fewer Conditions

Pressione 29.83 in
Visibilità 6.2 miglia
Nuvole Nubi sparse 8000 ft
Punto di rugiada 47 °F
Umidità 70%
Piovosità 0.00 in
Spessore del manto nevoso Non disponibile.
Raggi UV 0 fuori da 12
Polline Non disponibile.
Qualità dell'aria Non disponibile.
Flu Activity Non disponibile.
METAR LIRA 240645Z 01003KT 9999 SCT080 10/06 Q1010

More Conditions Fewer Conditions

10-Day Weather Forecast

Almanac

Astronomia

Oct. 24, 2014 Alba Tramonto
Ora attuale 07:32 CEST 18:15 CEST
Crepuscolo civile 07:03 CEST 18:43 CEST
Crepuscolo nautico 06:31 CEST 19:16 CEST
Crepuscolo astronomico 05:58 CEST 19:48 CEST
Luna 07:54 CEST 18:43 CEST
Estensione della luce visibile 11h 39m
Lunghezza del giorno
10h 43m
Tomorrow will be 2m 36s shorter.
Luna nuova, 0% of the Moon is Illuminated
Oggi
Luna nuova
Ott 30
Primo quarto
Nov 6
Luna piena
Nov 14
Ultimo quarto
Nov 22
Nuovo

Minime e massime di ieri

Massime Regione Minime Regione

Community

WunderPhotos

Upload Photos

1,764,510 foto caricate!

WunderBlogs® & News

Nearby

Qualità dell'aria

Not available.

Profondità neve

Not available.

Attività sismica

Città  Distanza Mag. Data & Ora
Non sono state riportate attività sismiche nelle vicinanze.
Minimo Magnitudo Mostrato è 2.5.

Temperature delle acque costiere

Località Temperatura
Nessun dato dalle stazioni

Stazioni meteo nelle vicinanze